Time;durP1;ratioP1;P1;durP2;ratioP2;P2;SDS_P1;SDS_P2;PMS_P1;PMS_P2;Temp;Humidity;BMP_temperature;BMP_pressure;BME280_temperature;BME280_humidity;BME280_pressure;Samples;Min_cycle;Max_cycle;Signal;HPM_P1;HPM_P2
2022/03/15 00:00:47;;;;;;;12.20;5.35;;;7.90;97.60;;;;;;5034008;28;20077;-45
2022/03/15 00:03:14;;;;;;;9.93;5.05;;;7.90;97.70;;;;;;5035003;28;20050;-44
2022/03/15 00:05:40;;;;;;;13.40;5.05;;;7.80;97.80;;;;;;5031310;28;20045;-46
2022/03/15 00:08:07;;;;;;;12.63;5.22;;;7.80;97.80;;;;;;5031947;28;20042;-44
2022/03/15 00:10:34;;;;;;;12.73;5.50;;;7.70;98.00;;;;;;5030429;28;20041;-45
2022/03/15 00:13:01;;;;;;;12.57;5.82;;;7.60;98.10;;;;;;5035518;28;20046;-42
2022/03/15 00:15:28;;;;;;;9.95;5.43;;;7.60;98.00;;;;;;5033200;28;20128;-42
2022/03/15 00:17:54;;;;;;;18.40;5.60;;;7.60;98.10;;;;;;5033214;28;20037;-46
2022/03/15 00:20:23;;;;;;;11.45;4.88;;;7.50;98.10;;;;;;5033674;28;20120;-45
2022/03/15 00:22:50;;;;;;;12.60;5.85;;;7.50;98.10;;;;;;5033443;28;20060;-47
2022/03/15 00:25:16;;;;;;;8.77;4.82;;;7.50;98.10;;;;;;5031700;28;20064;-52
2022/03/15 00:27:43;;;;;;;10.60;4.78;;;7.50;98.10;;;;;;5031591;28;20050;-45
2022/03/15 00:30:10;;;;;;;9.88;4.25;;;7.50;98.00;;;;;;5033776;28;20040;-48
2022/03/15 00:32:37;;;;;;;10.40;3.97;;;7.60;97.90;;;;;;5031649;28;20469;-45
2022/03/15 00:35:09;;;;;;;13.68;4.32;;;7.60;97.90;;;;;;5029535;28;20041;-42
2022/03/15 00:37:36;;;;;;;10.48;4.20;;;7.60;97.80;;;;;;5028468;28;20034;-44
2022/03/15 00:40:04;;;;;;;10.25;4.03;;;7.60;97.80;;;;;;5032123;28;20495;-46
2022/03/15 00:42:30;;;;;;;9.63;3.97;;;7.60;97.90;;;;;;5031754;28;20480;-50
2022/03/15 00:45:03;;;;;;;9.55;3.85;;;7.60;97.90;;;;;;5030836;28;20052;-44
2022/03/15 00:47:30;;;;;;;11.82;4.03;;;7.60;97.90;;;;;;5031842;28;20114;-52
2022/03/15 00:49:56;;;;;;;8.25;4.00;;;7.50;98.00;;;;;;5033307;28;20132;-47
2022/03/15 00:52:23;;;;;;;10.07;3.97;;;7.50;98.00;;;;;;5031653;28;20037;-51
2022/03/15 00:54:50;;;;;;;11.23;3.90;;;7.50;98.10;;;;;;5032646;28;20069;-50
2022/03/15 00:57:17;;;;;;;11.23;4.15;;;7.40;98.20;;;;;;5032527;28;20038;-45
2022/03/15 00:59:45;;;;;;;10.98;4.03;;;7.40;98.40;;;;;;5035333;28;20037;-46
2022/03/15 01:02:12;;;;;;;14.25;4.40;;;7.40;98.30;;;;;;5029989;28;20037;-50
2022/03/15 01:04:40;;;;;;;11.77;3.78;;;7.30;98.30;;;;;;5032155;28;20041;-43
2022/03/15 01:07:06;;;;;;;10.43;3.58;;;7.30;98.30;;;;;;5032793;28;20045;-48
2022/03/15 01:09:35;;;;;;;10.18;3.47;;;7.30;98.40;;;;;;5027474;28;20095;-46
2022/03/15 01:12:02;;;;;;;9.00;3.53;;;7.20;98.40;;;;;;5031316;28;20452;-49
2022/03/15 01:14:28;;;;;;;9.85;3.88;;;7.20;98.40;;;;;;5031078;28;20079;-45
2022/03/15 01:16:55;;;;;;;9.82;3.85;;;7.10;98.40;;;;;;5031309;28;20408;-43
2022/03/15 01:19:24;;;;;;;10.63;4.00;;;7.10;98.40;;;;;;5031622;28;20436;-43
2022/03/15 01:21:51;;;;;;;10.50;3.90;;;7.10;98.50;;;;;;5030701;28;20060;-45
2022/03/15 01:24:19;;;;;;;11.57;3.97;;;7.00;98.40;;;;;;5030611;28;20038;-48
2022/03/15 01:26:45;;;;;;;12.20;3.80;;;7.00;98.60;;;;;;5032397;28;20049;-43
2022/03/15 01:29:12;;;;;;;10.90;4.03;;;7.00;98.50;;;;;;5030925;28;20044;-42
2022/03/15 01:31:39;;;;;;;10.35;4.28;;;6.90;98.40;;;;;;5031525;28;20048;-45
2022/03/15 01:34:07;;;;;;;8.30;3.50;;;6.90;98.30;;;;;;5014765;28;20087;-42
2022/03/15 01:36:34;;;;;;;11.13;4.30;;;6.90;98.60;;;;;;5028807;28;20120;-45
2022/03/15 01:39:02;;;;;;;11.30;3.72;;;6.90;98.70;;;;;;5029200;28;20124;-46
2022/03/15 01:41:35;;;;;;;10.00;3.92;;;6.90;98.80;;;;;;5031498;28;20404;-47
2022/03/15 01:44:02;;;;;;;12.10;4.43;;;6.90;98.70;;;;;;5031913;28;20515;-46
2022/03/15 01:46:29;;;;;;;11.05;3.95;;;6.90;98.70;;;;;;5031304;28;20496;-44
2022/03/15 01:48:56;;;;;;;9.27;3.92;;;6.90;98.60;;;;;;5030225;28;20042;-44
2022/03/15 01:51:23;;;;;;;13.90;5.03;;;6.90;98.60;;;;;;5031155;28;20060;-42
2022/03/15 01:53:50;;;;;;;11.13;4.05;;;6.90;98.60;;;;;;5030587;28;20081;-44
2022/03/15 01:56:17;;;;;;;12.52;4.13;;;7.00;98.70;;;;;;5027876;28;20543;-45
2022/03/15 01:58:43;;;;;;;10.93;4.80;;;7.00;98.60;;;;;;5026070;28;20046;-44
2022/03/15 09:26:11;;;;;;;25.08;8.15;;;8.40;96.70;;;;;;5068533;28;20376;-46
2022/03/15 09:28:38;;;;;;;15.57;6.82;;;8.50;96.70;;;;;;5054997;28;20564;-43
2022/03/15 09:31:05;;;;;;;16.85;6.95;;;8.70;96.20;;;;;;5041655;28;20100;-44
2022/03/15 09:33:32;;;;;;;17.15;7.63;;;8.90;95.70;;;;;;5049245;28;20480;-41
2022/03/15 09:35:59;;;;;;;16.25;7.45;;;9.00;95.80;;;;;;5054629;28;20037;-44
2022/03/15 09:38:26;;;;;;;16.23;6.57;;;9.20;95.50;;;;;;5050308;28;20041;-44
2022/03/15 09:40:52;;;;;;;16.42;5.32;;;9.30;95.50;;;;;;5033158;28;20041;-42
2022/03/15 09:43:19;;;;;;;9.73;4.57;;;9.50;95.10;;;;;;5050191;28;20041;-49
2022/03/15 09:45:46;;;;;;;14.05;4.10;;;9.80;94.30;;;;;;5048503;28;20108;-46
2022/03/15 09:48:15;;;;;;;16.45;4.40;;;9.90;94.00;;;;;;5048577;28;20069;-49
2022/03/15 09:50:42;;;;;;;9.52;3.38;;;10.10;93.30;;;;;;5053163;28;20487;-44
2022/03/15 09:53:09;;;;;;;9.55;3.20;;;10.20;92.90;;;;;;5050413;28;20044;-43
2022/03/15 09:55:35;;;;;;;10.27;2.83;;;10.40;91.90;;;;;;5048191;28;20353;-45
2022/03/15 09:58:03;;;;;;;7.82;3.10;;;10.60;91.40;;;;;;5049369;28;20041;-44
2022/03/15 10:00:30;;;;;;;13.27;3.15;;;10.70;91.20;;;;;;5049166;28;20041;-45
2022/03/15 10:02:57;;;;;;;12.40;2.85;;;10.90;90.80;;;;;;5049474;28;20048;-43
2022/03/15 10:05:24;;;;;;;8.50;2.85;;;10.90;90.00;;;;;;5048575;28;20064;-44
2022/03/15 10:07:51;;;;;;;7.50;2.47;;;11.00;90.00;;;;;;5048692;28;20069;-45
2022/03/15 10:10:17;;;;;;;8.90;3.05;;;11.10;88.50;;;;;;5049315;28;20107;-45
2022/03/15 10:12:44;;;;;;;11.18;2.75;;;11.20;87.80;;;;;;5048788;28;20047;-45
2022/03/15 10:15:11;;;;;;;10.85;2.42;;;11.30;87.50;;;;;;5048621;28;20045;-51
2022/03/15 10:17:38;;;;;;;11.23;3.53;;;11.40;85.30;;;;;;5049184;28;20045;-41
2022/03/15 10:20:05;;;;;;;10.30;2.38;;;11.40;86.80;;;;;;5048114;28;20117;-48
2022/03/15 10:22:32;;;;;;;11.27;2.58;;;11.40;85.70;;;;;;5049421;28;20045;-43
2022/03/15 10:25:00;;;;;;;12.63;2.90;;;11.50;85.40;;;;;;5048507;28;20049;-43
2022/03/15 10:27:26;;;;;;;11.68;2.33;;;11.50;85.50;;;;;;5051494;28;20064;-45
2022/03/15 10:29:53;;;;;;;9.10;2.47;;;11.60;84.60;;;;;;5048650;28;20099;-44
2022/03/15 10:32:20;;;;;;;14.85;3.13;;;11.60;84.60;;;;;;5049786;28;20044;-43
2022/03/15 10:34:47;;;;;;;6.28;2.22;;;11.60;85.00;;;;;;5048975;28;20124;-45
2022/03/15 10:37:13;;;;;;;10.75;2.40;;;11.70;83.70;;;;;;5037184;28;20068;-46
2022/03/15 10:39:40;;;;;;;7.20;1.90;;;11.70;83.60;;;;;;5036135;28;20080;-46
2022/03/15 10:42:08;;;;;;;8.38;2.35;;;11.70;83.10;;;;;;5037538;28;20045;-47
2022/03/15 10:44:35;;;;;;;8.25;2.35;;;11.80;84.10;;;;;;5035395;28;20476;-45
2022/03/15 10:47:02;;;;;;;8.60;2.45;;;11.80;84.30;;;;;;5035416;28;20425;-46
2022/03/15 10:49:29;;;;;;;10.85;2.70;;;11.80;84.10;;;;;;5037387;28;20037;-43
2022/03/15 10:51:57;;;;;;;10.20;2.53;;;11.90;81.80;;;;;;5035400;28;20076;-43
2022/03/15 10:54:24;;;;;;;10.88;2.78;;;11.90;83.40;;;;;;5034853;28;20067;-44
2022/03/15 10:56:50;;;;;;;11.77;2.70;;;12.00;82.80;;;;;;5040326;28;20377;-46
2022/03/15 10:59:17;;;;;;;12.45;2.75;;;12.00;81.80;;;;;;5035142;28;20041;-44
2022/03/15 11:01:44;;;;;;;10.60;2.78;;;12.10;81.50;;;;;;5035225;28;20037;-47
2022/03/15 11:04:11;;;;;;;7.60;2.38;;;12.10;80.30;;;;;;5034625;28;20116;-43
2022/03/15 11:06:38;;;;;;;9.02;2.42;;;12.20;79.20;;;;;;5034781;28;20057;-46
2022/03/15 11:09:12;;;;;;;7.38;2.17;;;12.30;80.60;;;;;;5033485;28;20049;-45
2022/03/15 11:11:39;;;;;;;11.70;3.00;;;12.40;80.70;;;;;;5034952;28;20048;-50
2022/03/15 11:14:06;;;;;;;9.05;2.17;;;12.60;78.90;;;;;;5034314;28;20045;-47
2022/03/15 11:16:32;;;;;;;11.77;2.85;;;12.70;79.10;;;;;;5033822;28;20033;-45
2022/03/15 11:19:00;;;;;;;11.18;2.65;;;12.90;76.70;;;;;;5034449;28;20060;-43
2022/03/15 11:21:27;;;;;;;8.30;2.55;;;13.00;76.20;;;;;;5034722;28;20045;-44
2022/03/15 11:23:54;;;;;;;9.85;2.90;;;13.00;77.10;;;;;;5034681;28;20125;-44
2022/03/15 11:26:21;;;;;;;11.05;3.03;;;13.10;76.50;;;;;;5034862;28;20063;-46
2022/03/15 11:28:48;;;;;;;10.50;3.70;;;13.10;76.20;;;;;;5033832;28;20069;-44
2022/03/15 11:31:14;;;;;;;12.00;3.22;;;13.10;76.70;;;;;;5035022;28;20099;-42
2022/03/15 11:33:41;;;;;;;11.90;3.05;;;13.10;76.30;;;;;;5034592;28;20041;-41
2022/03/15 11:36:08;;;;;;;9.93;2.63;;;13.10;75.90;;;;;;5034450;28;20118;-47
2022/03/15 11:38:35;;;;;;;13.85;2.90;;;13.10;75.80;;;;;;5037185;28;20069;-47
2022/03/15 11:41:01;;;;;;;7.18;2.50;;;13.10;75.00;;;;;;5033164;28;20408;-46
2022/03/15 11:43:28;;;;;;;10.93;2.97;;;13.10;76.30;;;;;;5034310;28;20065;-47
2022/03/15 11:45:56;;;;;;;9.63;2.97;;;13.10;76.40;;;;;;5034060;28;20107;-46
2022/03/15 11:48:23;;;;;;;8.70;3.00;;;13.10;76.60;;;;;;5032883;28;20097;-44
2022/03/15 11:50:52;;;;;;;13.55;3.33;;;13.20;76.40;;;;;;5033534;28;20053;-44
2022/03/15 11:53:19;;;;;;;11.40;3.20;;;13.30;76.80;;;;;;5033915;28;20041;-48
2022/03/15 11:55:49;;;;;;;9.93;2.95;;;13.40;75.20;;;;;;5033373;28;20115;-44
2022/03/15 11:58:16;;;;;;;9.63;3.10;;;13.50;74.40;;;;;;5033909;28;20049;-43
2022/03/15 12:00:44;;;;;;;11.07;3.20;;;13.60;74.60;;;;;;5034350;28;20049;-46
2022/03/15 12:03:11;;;;;;;7.93;2.72;;;13.70;74.40;;;;;;5033455;28;20091;-47
2022/03/15 12:05:39;;;;;;;8.93;3.05;;;13.80;73.80;;;;;;5033717;28;20083;-48
2022/03/15 12:08:11;;;;;;;11.02;2.90;;;13.80;73.70;;;;;;5032520;28;20049;-45
2022/03/15 12:10:40;;;;;;;11.05;3.03;;;13.80;73.40;;;;;;5035470;28;20072;-42
2022/03/15 12:13:27;;;;;;;14.48;2.90;;;13.90;73.20;;;;;;5032905;28;20060;-43
2022/03/15 12:15:57;;;;;;;10.75;2.67;;;14.00;73.30;;;;;;5033150;28;20073;-44
2022/03/15 12:18:28;;;;;;;10.52;2.67;;;14.10;73.10;;;;;;5033930;28;20404;-44
2022/03/15 12:20:55;;;;;;;9.15;2.35;;;14.10;71.50;;;;;;5027798;28;20103;-42
2022/03/15 12:23:21;;;;;;;10.10;2.70;;;14.20;70.10;;;;;;5028504;28;20124;-45
2022/03/15 12:25:48;;;;;;;10.95;2.50;;;14.20;69.90;;;;;;5030792;28;20053;-46
2022/03/15 12:28:15;;;;;;;7.80;2.33;;;14.20;69.80;;;;;;5031709;28;20133;-45
2022/03/15 12:30:41;;;;;;;7.65;2.40;;;14.30;69.30;;;;;;5036193;28;20044;-46
2022/03/15 12:33:08;;;;;;;8.48;2.53;;;14.30;69.50;;;;;;5031833;28;20038;-43
2022/03/15 12:35:43;;;;;;;8.23;2.53;;;14.30;69.20;;;;;;5031534;28;20129;-48
2022/03/15 12:38:11;;;;;;;7.57;2.40;;;14.40;69.00;;;;;;5030762;28;20271;-44
2022/03/15 12:40:38;;;;;;;6.90;2.38;;;14.50;69.50;;;;;;5033011;28;20045;-45
2022/03/15 12:43:05;;;;;;;7.03;2.40;;;14.50;66.50;;;;;;5033712;28;20049;-47
2022/03/15 12:45:33;;;;;;;10.50;2.53;;;14.50;69.80;;;;;;5033389;28;20049;-42
2022/03/15 12:48:00;;;;;;;9.00;2.60;;;14.40;69.00;;;;;;5033167;28;20041;-43
2022/03/15 12:50:47;;;;;;;8.73;2.35;;;14.50;69.80;;;;;;5033281;28;20124;-44
2022/03/15 12:53:17;;;;;;;7.22;2.35;;;14.50;68.10;;;;;;5033807;28;20045;-45
2022/03/15 12:55:44;;;;;;;9.27;2.40;;;14.50;68.00;;;;;;5033484;28;20099;-45
2022/03/15 12:58:10;;;;;;;9.68;2.38;;;14.60;69.10;;;;;;5031933;28;20484;-44
2022/03/15 13:00:37;;;;;;;9.88;2.67;;;14.60;69.70;;;;;;5033206;28;20112;-50
2022/03/15 13:03:04;;;;;;;9.68;2.53;;;14.70;69.10;;;;;;5033097;28;20136;-44
2022/03/15 13:05:31;;;;;;;7.82;2.25;;;14.70;69.30;;;;;;5032529;28;20068;-45
2022/03/15 13:08:03;;;;;;;9.82;2.83;;;14.80;69.90;;;;;;5033067;28;20096;-41
2022/03/15 13:10:36;;;;;;;8.60;2.80;;;14.90;69.50;;;;;;5032543;28;20132;-43
2022/03/15 13:13:03;;;;;;;11.25;2.60;;;14.90;68.20;;;;;;5032235;28;20470;-42
2022/03/15 13:15:30;;;;;;;10.80;2.90;;;15.00;67.90;;;;;;5032888;28;20045;-42
2022/03/15 13:17:59;;;;;;;10.10;3.38;;;15.00;68.40;;;;;;5032986;28;20041;-46
2022/03/15 13:20:26;;;;;;;13.02;3.00;;;15.00;68.40;;;;;;5031333;28;20076;-44
2022/03/15 13:22:53;;;;;;;10.73;2.80;;;15.10;67.70;;;;;;5030466;28;20085;-45
2022/03/15 13:25:20;;;;;;;8.63;2.53;;;15.10;68.70;;;;;;5030541;28;20450;-42
2022/03/15 13:27:51;;;;;;;10.30;2.72;;;15.10;67.20;;;;;;5030917;28;20041;-42
2022/03/15 13:30:18;;;;;;;8.98;2.78;;;15.10;69.40;;;;;;5031581;28;20481;-45
2022/03/15 13:32:45;;;;;;;7.32;2.63;;;15.10;68.70;;;;;;5032999;28;20038;-46
2022/03/15 13:35:12;;;;;;;7.93;3.28;;;15.20;67.80;;;;;;5031375;28;20041;-42
2022/03/15 13:37:38;;;;;;;8.38;3.00;;;15.20;68.40;;;;;;5032851;28;20050;-42
2022/03/15 13:40:05;;;;;;;9.48;2.85;;;15.30;68.40;;;;;;5032665;28;20459;-44
2022/03/15 13:42:32;;;;;;;8.07;2.47;;;15.30;68.50;;;;;;5031661;28;20384;-44
2022/03/15 13:45:01;;;;;;;9.30;2.58;;;15.30;67.10;;;;;;5032591;28;20503;-48
2022/03/15 13:47:27;;;;;;;9.07;2.65;;;15.30;67.30;;;;;;5030879;28;20041;-42
2022/03/15 13:49:58;;;;;;;10.55;3.17;;;15.20;68.60;;;;;;5032642;28;20100;-44
2022/03/15 13:52:25;;;;;;;9.95;3.42;;;15.30;69.10;;;;;;5032783;28;20037;-46
2022/03/15 13:54:51;;;;;;;8.38;2.85;;;15.20;70.00;;;;;;5032641;28;20048;-45
2022/03/15 13:57:20;;;;;;;8.38;3.13;;;15.30;70.20;;;;;;5030817;28;20057;-45
2022/03/15 13:59:47;;;;;;;7.55;3.00;;;15.30;69.00;;;;;;5032445;28;20117;-42
2022/03/15 14:02:14;;;;;;;11.38;3.15;;;15.30;69.20;;;;;;5038591;28;20060;-45
2022/03/15 14:04:41;;;;;;;11.13;3.22;;;15.30;69.10;;;;;;5032582;28;20042;-47
2022/03/15 14:07:08;;;;;;;10.73;3.10;;;15.30;69.80;;;;;;5032474;28;20041;-43
2022/03/15 14:09:34;;;;;;;7.72;2.90;;;15.30;68.90;;;;;;5031875;28;20105;-43
2022/03/15 14:12:01;;;;;;;10.43;3.17;;;15.20;69.20;;;;;;5034605;28;20049;-41
2022/03/15 14:14:32;;;;;;;8.75;3.28;;;15.20;69.10;;;;;;5036358;28;20116;-44
2022/03/15 14:17:04;;;;;;;11.77;3.30;;;15.20;69.50;;;;;;5036234;28;20052;-41
2022/03/15 14:19:31;;;;;;;11.20;3.50;;;15.20;69.60;;;;;;5036150;28;20077;-41
2022/03/15 14:21:58;;;;;;;10.15;3.63;;;15.10;69.00;;;;;;5035584;28;20046;-46
2022/03/15 14:24:25;;;;;;;12.70;3.25;;;15.20;68.90;;;;;;5035875;28;20045;-43
2022/03/15 14:26:55;;;;;;;8.02;2.97;;;15.10;68.40;;;;;;5036117;28;20117;-44
2022/03/15 14:29:22;;;;;;;8.32;2.67;;;15.10;68.00;;;;;;5035931;28;20128;-43
2022/03/15 14:31:50;;;;;;;7.35;2.45;;;15.10;67.50;;;;;;5035806;28;20337;-43
2022/03/15 14:34:17;;;;;;;9.55;3.00;;;15.10;67.30;;;;;;5035750;28;20042;-42
2022/03/15 14:36:45;;;;;;;9.00;3.28;;;15.20;68.00;;;;;;5035797;28;20129;-42
2022/03/15 14:39:13;;;;;;;12.32;3.15;;;15.20;68.40;;;;;;5035938;28;20045;-43
2022/03/15 14:41:40;;;;;;;12.35;3.42;;;15.20;67.90;;;;;;5040291;28;20072;-43
2022/03/15 14:44:07;;;;;;;11.50;3.28;;;15.20;68.30;;;;;;5035174;28;20094;-41
2022/03/15 14:46:37;;;;;;;8.35;3.58;;;15.20;68.70;;;;;;5035736;28;20128;-42
2022/03/15 14:49:06;;;;;;;11.88;4.45;;;15.20;69.50;;;;;;5035551;28;20042;-40
2022/03/15 14:51:32;;;;;;;9.98;4.18;;;15.20;70.00;;;;;;5035390;28;20072;-43
2022/03/15 14:54:01;;;;;;;14.48;4.40;;;15.20;70.30;;;;;;5035387;28;20481;-44
2022/03/15 14:56:28;;;;;;;9.82;3.60;;;15.30;70.60;;;;;;5034806;28;20128;-43
2022/03/15 14:58:56;;;;;;;9.57;3.97;;;15.20;69.70;;;;;;5035225;28;20045;-43
2022/03/15 15:01:23;;;;;;;12.25;4.18;;;15.20;70.10;;;;;;5035492;28;20045;-45
2022/03/15 15:03:51;;;;;;;9.38;4.35;;;15.20;71.10;;;;;;5035300;28;20046;-45
2022/03/15 15:06:18;;;;;;;11.02;4.40;;;15.30;70.70;;;;;;5034704;28;20457;-45
2022/03/15 15:08:46;;;;;;;13.60;4.35;;;15.20;71.10;;;;;;5035073;28;20092;-48
2022/03/15 15:11:12;;;;;;;11.15;4.75;;;15.20;71.10;;;;;;5037046;28;20099;-45
2022/03/15 15:13:39;;;;;;;9.80;4.55;;;15.20;72.20;;;;;;5034055;28;20405;-43
2022/03/15 15:16:10;;;;;;;12.63;4.00;;;15.30;71.40;;;;;;5034995;28;20488;-45
2022/03/15 15:18:41;;;;;;;9.60;3.25;;;15.30;70.60;;;;;;5034366;28;20600;-44
2022/03/15 15:21:08;;;;;;;31.73;4.30;;;15.20;70.10;;;;;;5035057;28;20041;-48
2022/03/15 15:23:37;;;;;;;17.08;3.95;;;15.20;70.20;;;;;;5034933;28;20091;-47
2022/03/15 15:26:06;;;;;;;10.43;3.47;;;15.30;69.30;;;;;;5034646;28;20065;-47
2022/03/15 15:28:34;;;;;;;7.00;2.67;;;15.30;70.90;;;;;;5034914;28;20125;-42
2022/03/15 15:31:01;;;;;;;9.00;2.50;;;15.20;68.60;;;;;;5035807;28;20043;-43
2022/03/15 15:33:28;;;;;;;8.57;2.90;;;15.20;68.60;;;;;;5034799;28;20064;-44
2022/03/15 15:35:55;;;;;;;7.90;2.58;;;15.20;69.00;;;;;;5034842;28;20046;-44
2022/03/15 15:38:22;;;;;;;10.88;3.08;;;15.20;68.80;;;;;;5034707;28;20095;-43
2022/03/15 15:40:51;;;;;;;10.25;2.78;;;15.20;69.00;;;;;;5034237;28;20046;-43
2022/03/15 15:43:18;;;;;;;8.15;2.83;;;15.10;69.30;;;;;;5034806;28;20120;-49
2022/03/15 15:45:45;;;;;;;7.85;3.08;;;15.10;69.60;;;;;;5033232;28;20052;-43
2022/03/15 15:48:12;;;;;;;8.00;3.50;;;15.10;69.80;;;;;;5034632;28;20046;-50
2022/03/15 15:50:40;;;;;;;8.73;3.55;;;15.10;70.50;;;;;;5034416;28;20112;-48
2022/03/15 15:53:09;;;;;;;9.70;3.40;;;15.00;71.60;;;;;;5033709;28;20041;-43
2022/03/15 15:55:41;;;;;;;9.57;2.92;;;15.00;70.90;;;;;;5034310;28;20042;-43
2022/03/15 15:58:08;;;;;;;11.85;3.90;;;15.00;70.70;;;;;;5034213;28;20044;-45
2022/03/15 16:00:37;;;;;;;8.18;3.35;;;14.90;72.20;;;;;;5036862;28;20496;-45
2022/03/15 16:03:04;;;;;;;8.23;3.92;;;14.90;73.10;;;;;;5036112;28;20034;-45
2022/03/15 16:05:31;;;;;;;8.20;3.25;;;14.80;73.40;;;;;;5033804;28;20044;-45
2022/03/15 16:07:59;;;;;;;11.23;3.78;;;14.80;74.20;;;;;;5034045;28;20041;-46
2022/03/15 16:10:26;;;;;;;9.02;3.90;;;14.80;75.10;;;;;;5033845;28;20038;-47
2022/03/15 16:12:53;;;;;;;8.10;3.63;;;14.70;75.10;;;;;;5033948;28;20033;-43
2022/03/15 16:15:22;;;;;;;8.68;4.03;;;14.70;75.60;;;;;;5034037;28;20037;-42
2022/03/15 16:17:49;;;;;;;13.15;4.90;;;14.70;76.30;;;;;;5033983;28;20045;-46
2022/03/15 16:20:17;;;;;;;10.27;5.00;;;14.60;76.40;;;;;;5033706;28;20061;-41
2022/03/15 16:22:45;;;;;;;9.77;5.43;;;14.60;77.10;;;;;;5033789;28;20061;-46
2022/03/15 16:25:11;;;;;;;11.07;5.57;;;14.60;77.50;;;;;;5033573;28;20077;-47
2022/03/15 16:27:38;;;;;;;11.55;5.43;;;14.50;77.60;;;;;;5033188;28;20057;-44
2022/03/15 16:30:05;;;;;;;11.25;5.55;;;14.50;77.80;;;;;;5033608;28;20152;-43
2022/03/15 16:32:32;;;;;;;12.50;5.80;;;14.50;78.30;;;;;;5032844;28;20046;-43
2022/03/15 16:34:58;;;;;;;7.57;4.10;;;14.40;78.70;;;;;;5033019;28;20061;-50
2022/03/15 16:37:43;;;;;;;7.20;3.43;;;14.40;78.80;;;;;;5032453;28;20053;-43
2022/03/15 16:40:14;;;;;;;7.57;3.40;;;14.40;79.20;;;;;;5026787;28;20316;-46
2022/03/15 16:42:44;;;;;;;8.32;4.35;;;14.40;79.20;;;;;;5033639;28;20500;-47
2022/03/15 16:45:11;;;;;;;13.20;4.65;;;14.30;79.50;;;;;;5033362;28;20119;-46
2022/03/15 16:47:38;;;;;;;9.88;5.00;;;14.30;79.90;;;;;;5032135;28;20132;-43
2022/03/15 16:50:04;;;;;;;9.63;4.70;;;14.20;80.70;;;;;;5031603;28;20432;-44
2022/03/15 16:52:32;;;;;;;11.82;4.97;;;14.20;80.90;;;;;;5033125;28;20120;-49
2022/03/15 16:55:00;;;;;;;9.52;4.47;;;14.20;81.20;;;;;;5033262;28;20413;-43
2022/03/15 16:57:28;;;;;;;9.40;4.80;;;14.20;82.10;;;;;;5033250;28;20080;-44
2022/03/15 16:59:55;;;;;;;10.48;4.30;;;14.10;82.10;;;;;;5033124;28;20100;-46
2022/03/15 17:02:22;;;;;;;6.25;4.20;;;14.00;83.40;;;;;;5035524;28;20132;-42
2022/03/15 17:07:34;;;;;;;8.50;4.00;;;13.90;83.50;;;;;;5033039;28;20042;-47
2022/03/15 17:10:01;;;;;;;7.72;4.18;;;13.80;83.70;;;;;;5032957;28;20095;-43
2022/03/15 17:12:35;;;;;;;12.50;4.15;;;13.80;84.60;;;;;;5032922;28;20042;-42
2022/03/15 17:15:03;;;;;;;12.18;4.40;;;13.80;84.70;;;;;;5032921;28;20037;-42
2022/03/15 17:17:34;;;;;;;6.40;3.88;;;13.70;84.90;;;;;;5033037;28;20416;-42
2022/03/15 17:20:01;;;;;;;9.05;4.20;;;13.60;85.50;;;;;;5032959;28;20480;-44
2022/03/15 17:22:28;;;;;;;8.68;4.50;;;13.50;85.80;;;;;;5032969;28;20107;-42
2022/03/15 17:24:58;;;;;;;9.73;4.05;;;13.50;86.40;;;;;;5032526;28;20556;-46
2022/03/15 17:27:26;;;;;;;8.75;4.30;;;13.50;86.50;;;;;;5032432;28;20037;-44
2022/03/15 17:29:55;;;;;;;9.52;4.30;;;13.40;86.80;;;;;;5032784;28;20042;-51
2022/03/15 17:32:24;;;;;;;7.78;4.38;;;13.40;87.10;;;;;;5032835;28;20045;-42
2022/03/15 17:34:51;;;;;;;9.73;4.60;;;13.30;87.30;;;;;;5032887;28;20490;-48
2022/03/15 17:37:20;;;;;;;8.10;4.47;;;13.30;87.60;;;;;;5032663;28;20068;-44
2022/03/15 17:39:56;;;;;;;8.15;4.00;;;13.20;88.00;;;;;;5032777;28;20492;-42
2022/03/15 17:42:23;;;;;;;8.77;4.47;;;13.10;88.20;;;;;;5032750;28;20107;-46
2022/03/15 17:44:50;;;;;;;9.77;4.78;;;13.10;88.40;;;;;;5032804;28;20045;-42
2022/03/15 17:47:17;;;;;;;9.93;4.50;;;13.00;88.70;;;;;;5035394;28;20400;-45
2022/03/15 17:50:18;;;;;;;7.47;3.70;;;13.00;89.10;;;;;;5036611;28;20045;-48
2022/03/15 17:52:37;;;;;;;11.73;4.78;;;12.90;89.30;;;;;;5035805;28;20119;-42
2022/03/15 17:55:05;;;;;;;8.88;5.05;;;12.90;89.70;;;;;;5036504;28;20084;-45
2022/03/15 17:57:32;;;;;;;9.23;4.40;;;12.80;90.00;;;;;;5040062;28;20037;-44
2022/03/15 18:00:00;;;;;;;7.80;4.15;;;12.80;90.20;;;;;;5036317;28;20073;-44
2022/03/15 18:02:28;;;;;;;7.68;4.80;;;12.70;90.20;;;;;;5036507;28;20045;-45
2022/03/15 18:05:01;;;;;;;8.18;4.43;;;12.70;90.50;;;;;;5036421;28;20076;-46
2022/03/15 18:07:28;;;;;;;10.38;4.60;;;12.60;90.60;;;;;;5036326;28;20042;-46
2022/03/15 18:09:55;;;;;;;12.02;4.82;;;12.60;90.70;;;;;;5036449;28;20369;-44
2022/03/15 18:12:23;;;;;;;9.40;4.93;;;12.50;90.80;;;;;;5036427;28;20053;-43
2022/03/15 18:14:53;;;;;;;7.13;4.43;;;12.50;90.90;;;;;;5036657;28;20042;-45
2022/03/15 18:17:23;;;;;;;7.45;3.97;;;12.50;91.00;;;;;;5036534;28;20050;-43
2022/03/15 18:19:50;;;;;;;8.13;4.90;;;12.40;91.00;;;;;;5036294;28;20045;-45
2022/03/15 18:22:19;;;;;;;8.52;5.60;;;12.40;91.20;;;;;;5035040;28;20464;-47
2022/03/15 18:24:47;;;;;;;16.42;9.18;;;12.40;91.30;;;;;;5035940;28;20519;-46
2022/03/15 18:27:14;;;;;;;14.05;8.82;;;12.40;91.40;;;;;;5038806;28;20443;-47
2022/03/15 18:29:41;;;;;;;9.23;5.65;;;12.30;91.50;;;;;;5036044;28;20103;-47
2022/03/15 18:32:09;;;;;;;9.52;5.82;;;12.30;91.50;;;;;;5036399;28;20037;-43
2022/03/15 18:34:45;;;;;;;14.13;7.20;;;12.30;91.50;;;;;;5035502;28;20103;-45
2022/03/15 18:37:12;;;;;;;17.75;7.70;;;12.20;91.50;;;;;;5035946;28;20076;-41
2022/03/15 18:39:39;;;;;;;16.25;9.80;;;12.20;91.70;;;;;;5035756;28;20041;-43
2022/03/15 18:42:05;;;;;;;26.17;15.93;;;12.10;91.60;;;;;;5035895;28;20072;-45
2022/03/15 18:44:34;;;;;;;51.05;28.33;;;12.10;91.70;;;;;;5035750;28;20042;-43
2022/03/15 18:47:03;;;;;;;30.27;17.88;;;12.10;91.80;;;;;;5035496;28;20069;-45
2022/03/15 18:49:30;;;;;;;31.25;18.35;;;12.00;91.80;;;;;;5035580;28;20041;-43
2022/03/15 18:51:57;;;;;;;47.70;28.83;;;12.00;91.70;;;;;;5035583;28;20125;-41
2022/03/15 18:54:23;;;;;;;25.95;17.75;;;12.00;91.80;;;;;;5035396;28;20041;-45
2022/03/15 18:56:51;;;;;;;17.58;10.88;;;11.90;91.90;;;;;;5034571;28;20041;-45
2022/03/15 18:59:20;;;;;;;10.27;6.03;;;11.90;92.00;;;;;;5035262;28;20386;-43
2022/03/15 19:01:47;;;;;;;6.90;3.97;;;11.80;91.90;;;;;;5038909;28;20080;-43
2022/03/15 19:04:14;;;;;;;7.00;4.47;;;11.80;92.00;;;;;;5035463;28;20042;-41
2022/03/15 19:06:42;;;;;;;10.40;4.50;;;11.80;92.20;;;;;;5035273;28;20116;-46
2022/03/15 19:09:08;;;;;;;12.82;6.82;;;11.70;92.30;;;;;;5035105;28;20451;-44
2022/03/15 19:11:40;;;;;;;11.90;5.68;;;11.70;92.50;;;;;;5035422;28;20124;-43
2022/03/15 19:14:09;;;;;;;11.05;4.88;;;11.60;92.50;;;;;;5035426;28;20045;-46
2022/03/15 19:16:42;;;;;;;8.48;4.88;;;11.60;92.70;;;;;;5035480;28;20037;-45
2022/03/15 19:19:10;;;;;;;11.52;5.30;;;11.60;92.70;;;;;;5028826;28;20043;-45
2022/03/15 19:21:37;;;;;;;9.68;4.65;;;11.50;92.80;;;;;;5028982;28;20413;-47
2022/03/15 19:24:11;;;;;;;10.15;5.43;;;11.50;92.90;;;;;;5029374;28;20045;-43
2022/03/15 19:26:39;;;;;;;8.07;4.70;;;11.50;92.90;;;;;;5034713;28;20049;-45
2022/03/15 19:29:10;;;;;;;8.98;5.32;;;11.50;93.00;;;;;;5034686;28;20057;-41
2022/03/15 19:31:41;;;;;;;8.95;5.80;;;11.40;93.00;;;;;;5039039;28;20530;-44
2022/03/15 19:34:09;;;;;;;11.75;6.60;;;11.40;93.10;;;;;;5034872;28;20045;-45
2022/03/15 19:36:37;;;;;;;14.68;6.38;;;11.40;93.20;;;;;;5034826;28;20042;-41
2022/03/15 19:39:04;;;;;;;10.18;7.57;;;11.40;93.30;;;;;;5034750;28;20037;-43
2022/03/15 19:41:31;;;;;;;12.55;8.50;;;11.30;93.30;;;;;;5034524;28;20065;-45
2022/03/15 19:43:58;;;;;;;12.02;8.30;;;11.30;93.40;;;;;;5034527;28;20099;-43
2022/03/15 19:46:25;;;;;;;16.85;8.65;;;11.30;93.50;;;;;;5034609;28;20069;-42
2022/03/15 19:48:52;;;;;;;19.77;10.82;;;11.30;93.50;;;;;;5034505;28;20045;-43
2022/03/15 19:51:19;;;;;;;22.33;15.00;;;11.30;93.50;;;;;;5034828;28;20095;-44
2022/03/15 19:53:46;;;;;;;17.88;9.98;;;11.20;93.50;;;;;;5034338;28;20049;-44
2022/03/15 19:56:15;;;;;;;12.07;8.35;;;11.20;93.50;;;;;;5034224;28;20045;-42
2022/03/15 19:58:42;;;;;;;16.92;8.55;;;11.20;93.50;;;;;;5034383;28;20049;-43
2022/03/15 20:01:11;;;;;;;15.30;8.43;;;11.20;93.70;;;;;;5035573;28;20069;-43
2022/03/15 20:03:39;;;;;;;15.10;9.60;;;11.20;93.70;;;;;;5034344;28;20099;-43
2022/03/15 20:06:10;;;;;;;14.10;8.52;;;11.20;93.70;;;;;;5034110;28;20117;-43
2022/03/15 20:08:41;;;;;;;14.63;7.57;;;11.20;93.70;;;;;;5033327;28;20050;-46
2022/03/15 20:11:11;;;;;;;14.63;8.60;;;11.20;93.70;;;;;;5034212;28;20047;-47
2022/03/15 20:13:39;;;;;;;11.80;8.15;;;11.10;93.70;;;;;;5034398;28;20421;-48